Time;durP1;ratioP1;P1;durP2;ratioP2;P2;SDS_P1;SDS_P2;PMS_P1;PMS_P2;Temp;Humidity;BMP_temperature;BMP_pressure;BME280_temperature;BME280_humidity;BME280_pressure;Samples;Min_cycle;Max_cycle;Signal;HPM_P1;HPM_P2
2022/10/19 00:03:38;;;;;;;8.33;6.03;;;;;;;13.46;99.51;99784.94;4300204;81;21074;-84
2022/10/19 00:09:42;;;;;;;10.50;5.72;;;;;;;13.41;99.80;99778.38;4298469;81;20983;-83
2022/10/19 00:15:44;;;;;;;9.80;6.50;;;;;;;13.34;99.99;99787.94;4275814;81;21045;-84
2022/10/19 00:21:50;;;;;;;8.85;5.78;;;;;;;13.28;100.00;99780.59;4288481;81;21022;-84
2022/10/19 00:27:52;;;;;;;10.08;6.37;;;;;;;13.21;100.00;99786.58;4285909;80;21075;-83
2022/10/19 00:33:57;;;;;;;12.55;7.12;;;;;;;13.19;100.00;99780.66;4286473;81;20994;-83
2022/10/19 00:39:59;;;;;;;7.75;5.87;;;;;;;13.17;100.00;99787.13;4292128;81;21015;-83
2022/10/19 00:46:02;;;;;;;8.58;6.40;;;;;;;13.13;100.00;99775.28;4288148;81;21025;-83
2022/10/19 00:52:09;;;;;;;11.40;6.62;;;;;;;13.08;100.00;99777.78;4287789;81;21007;-83
2022/10/19 00:58:12;;;;;;;9.10;6.00;;;;;;;13.06;100.00;99777.34;4271999;81;21490;-83
2022/10/19 01:04:16;;;;;;;9.68;5.25;;;;;;;13.03;100.00;99768.48;4274862;81;21047;-83
2022/10/19 01:10:21;;;;;;;9.05;6.00;;;;;;;13.00;100.00;99759.60;4283354;81;21023;-83
2022/10/19 01:17:02;;;;;;;6.17;5.50;;;;;;;12.94;100.00;99754.77;4312293;80;21018;-83
2022/10/19 01:23:22;;;;;;;9.98;5.80;;;;;;;12.98;100.00;99744.63;4328470;80;21078;-83
2022/10/19 01:29:54;;;;;;;9.23;7.53;;;;;;;12.84;100.00;99743.87;4308416;80;21055;-83
2022/10/19 01:36:29;;;;;;;17.90;9.23;;;;;;;12.87;100.00;99743.13;4250473;82;21019;-83
2022/10/19 01:42:58;;;;;;;16.65;9.05;;;;;;;12.83;100.00;99730.47;4182123;82;21047;-83
2022/10/19 01:49:14;;;;;;;12.15;7.37;;;;;;;12.70;100.00;99723.03;4249335;82;21011;-82
2022/10/19 01:55:18;;;;;;;10.72;7.95;;;;;;;12.54;100.00;99710.84;4209312;83;21066;-83
2022/10/19 02:01:23;;;;;;;13.75;8.08;;;;;;;12.58;100.00;99711.70;4251544;82;21058;-83
2022/10/19 02:07:25;;;;;;;11.78;7.00;;;;;;;12.61;100.00;99726.06;4211171;83;21025;-83
2022/10/19 02:13:28;;;;;;;11.83;5.67;;;;;;;12.68;100.00;99726.76;4347394;80;21004;-83
2022/10/19 02:19:29;;;;;;;7.97;6.25;;;;;;;12.70;100.00;99723.64;4345900;80;22004;-83
2022/10/19 02:25:32;;;;;;;16.57;7.03;;;;;;;12.62;100.00;99719.41;4352093;79;21031;-84
2022/10/19 02:31:33;;;;;;;12.43;7.83;;;;;;;12.70;100.00;99719.52;4351732;80;21487;-83
2022/10/19 02:37:35;;;;;;;12.55;7.35;;;;;;;12.71;100.00;99719.14;4355639;80;21922;-85
2022/10/19 02:43:40;;;;;;;13.50;8.58;;;;;;;12.69;100.00;99704.98;4216588;80;7197475;-84
2022/10/19 02:50:22;;;;;;;14.35;9.33;;;;;;;12.59;100.00;99698.77;4153901;84;21606;-84
2022/10/19 02:56:34;;;;;;;20.05;12.15;;;;;;;12.55;100.00;99695.17;4229092;83;21074;-84
2022/10/19 03:02:35;;;;;;;18.70;12.78;;;;;;;12.58;100.00;99689.73;4226961;83;21056;-84
2022/10/19 03:08:44;;;;;;;20.77;14.20;;;;;;;12.59;100.00;99692.68;4194047;83;21455;-84
2022/10/19 03:14:51;;;;;;;24.67;15.50;;;;;;;12.61;100.00;99692.30;4212897;83;21415;-84
2022/10/19 03:21:03;;;;;;;23.18;14.35;;;;;;;12.62;100.00;99697.42;4271524;82;21057;-83
2022/10/19 03:27:05;;;;;;;21.42;15.23;;;;;;;12.62;100.00;99696.66;4277753;82;21065;-83
2022/10/19 03:33:06;;;;;;;19.55;15.15;;;;;;;12.62;100.00;99696.05;4243801;82;21479;-84
2022/10/19 03:39:13;;;;;;;21.00;14.53;;;;;;;12.60;100.00;99692.11;4242819;82;21510;-85
2022/10/19 03:45:15;;;;;;;;;;;;;;;12.60;100.00;99692.91;4242596;82;21632;-84
2022/10/19 03:51:23;;;;;;;21.62;14.03;;;;;;;12.60;100.00;99690.16;4166075;83;20152;-83
2022/10/19 03:57:25;;;;;;;21.05;15.05;;;;;;;12.55;100.00;99680.06;4169843;83;21050;-83
2022/10/19 04:03:27;;;;;;;23.30;15.70;;;;;;;12.52;100.00;99685.73;4160070;83;21037;-83
2022/10/19 04:09:28;;;;;;;21.73;16.37;;;;;;;12.50;100.00;99684.50;4175906;83;21043;-83
2022/10/19 04:15:31;;;;;;;25.32;17.32;;;;;;;12.43;100.00;99668.71;4134439;84;21059;-84
2022/10/19 04:21:36;;;;;;;22.40;16.48;;;;;;;12.42;100.00;99674.57;4130073;84;21063;-83
2022/10/19 04:27:38;;;;;;;21.40;16.90;;;;;;;12.38;100.00;99664.94;4138961;84;21045;-83
2022/10/19 04:33:40;;;;;;;28.32;19.05;;;;;;;12.40;100.00;99674.17;4153810;84;21783;-83
2022/10/19 04:39:43;;;;;;;28.52;20.52;;;;;;;12.41;100.00;99670.25;4167730;83;21040;-83
2022/10/19 04:45:45;;;;;;;34.73;20.10;;;;;;;12.37;100.00;99677.06;4200245;83;22129;-84
2022/10/19 04:51:51;;;;;;;27.32;18.77;;;;;;;12.35;100.00;99671.17;4211515;83;21019;-83
2022/10/19 04:57:53;;;;;;;41.00;20.27;;;;;;;12.34;100.00;99668.19;4181749;83;21125;-83
2022/10/19 05:04:00;;;;;;;36.30;19.27;;;;;;;12.34;100.00;99662.70;4141740;84;21055;-83
2022/10/19 05:10:03;;;;;;;27.07;19.60;;;;;;;12.33;100.00;99666.62;4153325;84;21001;-83
2022/10/19 05:16:09;;;;;;;28.92;19.85;;;;;;;12.30;100.00;99666.56;4158079;84;21076;-84
2022/10/19 05:22:12;;;;;;;26.55;18.77;;;;;;;12.27;100.00;99673.59;4087739;85;21008;-84
2022/10/19 05:28:13;;;;;;;26.25;17.07;;;;;;;12.26;100.00;99665.13;4135234;84;21082;-84
2022/10/19 05:34:16;;;;;;;21.23;15.72;;;;;;;12.26;100.00;99679.45;4143837;84;21610;-84
2022/10/19 05:40:17;;;;;;;22.75;14.33;;;;;;;12.20;100.00;99669.36;4082390;86;21011;-83
2022/10/19 05:46:21;;;;;;;21.80;14.53;;;;;;;12.15;100.00;99662.03;4151730;84;21143;-84
2022/10/19 05:52:22;;;;;;;18.45;12.40;;;;;;;12.05;100.00;99664.02;4137771;84;21082;-85
2022/10/19 05:58:24;;;;;;;16.82;12.37;;;;;;;11.92;100.00;99677.14;4129064;83;21084;-84
2022/10/19 06:04:25;;;;;;;18.73;11.95;;;;;;;11.84;100.00;99681.52;4148873;84;20979;-85
2022/10/19 06:10:27;;;;;;;16.35;10.68;;;;;;;11.79;100.00;99696.31;4148691;84;21003;-83
2022/10/19 06:16:30;;;;;;;17.77;12.37;;;;;;;11.77;100.00;99708.81;4155083;84;21055;-84
2022/10/19 06:22:31;;;;;;;18.48;12.40;;;;;;;11.76;100.00;99715.47;4110703;84;21076;-85
2022/10/19 06:28:34;;;;;;;19.80;11.60;;;;;;;11.71;100.00;99725.37;4128832;84;21029;-83
2022/10/19 06:34:35;;;;;;;21.33;11.43;;;;;;;11.66;100.00;99710.58;4129798;84;21095;-84
2022/10/19 06:40:45;;;;;;;17.87;12.15;;;;;;;11.66;100.00;99714.69;4156371;84;21072;-83
2022/10/19 06:46:46;;;;;;;19.07;12.30;;;;;;;11.74;100.00;99716.41;4152169;84;22107;-84
2022/10/19 06:52:47;;;;;;;17.37;12.30;;;;;;;11.87;100.00;99725.45;4122418;84;21027;-84
2022/10/19 06:58:50;;;;;;;20.10;14.55;;;;;;;12.03;100.00;99723.39;4136785;83;21106;-84
2022/10/19 07:04:51;;;;;;;30.27;17.07;;;;;;;12.20;100.00;99732.48;4145748;84;21491;-83
2022/10/19 07:10:57;;;;;;;31.17;19.37;;;;;;;12.44;100.00;99746.39;4131402;84;21028;-85
2022/10/19 07:16:58;;;;;;;28.30;18.15;;;;;;;12.54;100.00;99745.17;4138952;84;21706;-84
2022/10/19 07:22:59;;;;;;;22.98;16.00;;;;;;;12.60;100.00;99734.11;4086582;84;21084;-85
2022/10/19 07:29:03;;;;;;;27.20;18.45;;;;;;;12.86;100.00;99738.77;4123696;84;21042;-84
2022/10/19 07:35:05;;;;;;;31.17;17.42;;;;;;;12.90;100.00;99745.12;4166381;81;35894;-84
2022/10/19 07:41:19;;;;;;;27.02;17.07;;;;;;;12.82;100.00;99746.76;4257334;82;21485;-84
2022/10/19 07:47:20;;;;;;;19.32;14.65;;;;;;;12.72;100.00;99759.17;4251359;82;20972;-84
2022/10/19 07:53:23;;;;;;;21.30;14.85;;;;;;;12.64;100.00;99760.23;4259409;82;21948;-84
2022/10/19 07:59:24;;;;;;;25.20;15.88;;;;;;;12.54;100.00;99762.25;4264823;82;21559;-84
2022/10/19 08:05:36;;;;;;;24.30;15.48;;;;;;;12.47;100.00;99751.95;4266807;82;21036;-85
2022/10/19 08:11:37;;;;;;;23.30;17.23;;;;;;;12.39;100.00;99753.56;4256366;82;21045;-84
2022/10/19 08:17:40;;;;;;;22.73;16.40;;;;;;;12.39;100.00;99746.70;4265465;82;21557;-85
2022/10/19 08:23:42;;;;;;;31.55;16.95;;;;;;;12.37;100.00;99750.42;4261987;82;21049;-83
2022/10/19 08:29:43;;;;;;;24.55;16.40;;;;;;;12.49;100.00;99739.22;4267242;82;20993;-83
2022/10/19 08:35:44;;;;;;;24.07;16.20;;;;;;;12.55;100.00;99745.41;4262411;80;21545;-84
2022/10/19 08:42:06;;;;;;;22.62;15.70;;;;;;;12.56;100.00;99740.11;4265673;82;21506;-84
2022/10/19 08:48:35;;;;;;;22.10;12.20;;;;;;;12.75;100.00;99750.80;4265775;82;21073;-84
2022/10/19 08:54:42;;;;;;;16.85;10.60;;;;;;;12.71;100.00;99747.19;4263908;82;21481;-84
2022/10/19 09:01:04;;;;;;;;;;;;;;;12.54;100.00;99745.78;4266483;82;21533;-84
2022/10/19 09:07:20;;;;;;;19.82;9.50;;;;;;;12.40;100.00;99739.47;4321816;82;20128;-84
2022/10/19 09:13:46;;;;;;;16.70;8.68;;;;;;;12.36;100.00;99741.95;4262280;82;21026;-83
2022/10/19 09:19:47;;;;;;;14.80;7.75;;;;;;;12.31;100.00;99749.13;4265015;83;21029;-84
2022/10/19 09:25:50;;;;;;;15.20;8.60;;;;;;;12.20;100.00;99747.58;4270207;82;21955;-83
2022/10/19 09:31:59;;;;;;;12.13;7.37;;;;;;;12.08;100.00;99758.76;4215208;82;21026;-83
2022/10/19 09:38:03;;;;;;;11.35;7.50;;;;;;;12.02;99.49;99749.25;4265012;82;21013;-84
2022/10/19 09:44:04;;;;;;;11.55;7.05;;;;;;;11.94;100.00;99737.94;4244247;82;21041;-84
2022/10/19 09:50:25;;;;;;;11.25;4.92;;;;;;;11.94;99.58;99753.59;4272907;81;21624;-84
2022/10/19 09:56:28;;;;;;;9.80;4.00;;;;;;;11.89;98.35;99749.78;4281789;81;21128;-85
2022/10/19 10:02:31;;;;;;;11.93;5.78;;;;;;;12.08;98.34;99757.39;4293050;81;20994;-84
2022/10/19 10:08:37;;;;;;;9.93;5.30;;;;;;;12.93;98.23;99755.37;4292258;81;20986;-84
2022/10/19 10:14:47;;;;;;;11.50;5.90;;;;;;;13.33;98.74;99755.52;4291327;81;21449;-84
2022/10/19 10:21:00;;;;;;;12.90;5.50;;;;;;;13.33;95.23;99751.96;4303990;81;21076;-84
2022/10/19 10:27:05;;;;;;;16.40;5.83;;;;;;;12.96;94.12;99751.88;4289540;81;21108;-84
2022/10/19 10:33:09;;;;;;;15.53;5.65;;;;;;;12.68;93.69;99744.61;4270332;81;22107;-84
2022/10/19 10:39:13;;;;;;;9.20;3.55;;;;;;;12.52;93.46;99742.03;4291797;81;21261;-84
2022/10/19 10:45:27;;;;;;;9.08;3.67;;;;;;;12.47;92.64;99746.45;4284454;81;21045;-84
2022/10/19 10:51:46;;;;;;;10.80;4.10;;;;;;;12.42;92.04;99751.45;4283048;81;21037;-84
2022/10/19 10:57:51;;;;;;;7.42;3.80;;;;;;;12.42;91.32;99750.88;4277837;82;20979;-83
2022/10/19 11:04:12;;;;;;;7.45;2.98;;;;;;;12.50;91.03;99744.91;4282190;82;21014;-83
2022/10/19 11:10:42;;;;;;;6.78;3.20;;;;;;;12.66;90.10;99745.55;4277543;82;21065;-84
2022/10/19 11:16:46;;;;;;;8.55;3.17;;;;;;;12.81;90.45;99741.06;4281061;82;21011;-84
2022/10/19 11:22:59;;;;;;;11.45;2.72;;;;;;;13.04;90.55;99739.84;4278362;82;21070;-83
2022/10/19 11:29:28;;;;;;;7.37;2.22;;;;;;;13.11;88.19;99748.77;4277554;82;21009;-83
2022/10/19 11:35:52;;;;;;;8.13;1.87;;;;;;;13.09;87.50;99739.49;4282690;82;21019;-83
2022/10/19 11:42:03;;;;;;;9.43;1.85;;;;;;;12.84;85.02;99754.86;4278664;82;21477;-83
2022/10/19 11:48:25;;;;;;;6.83;2.25;;;;;;;12.68;84.17;99754.80;4278155;82;21065;-83
2022/10/19 11:54:57;;;;;;;9.98;3.20;;;;;;;12.59;83.92;99746.84;4237304;83;21046;-83
2022/10/19 12:01:19;;;;;;;11.15;2.45;;;;;;;12.58;84.32;99752.10;4282647;82;21545;-83
2022/10/19 12:07:42;;;;;;;5.45;1.70;;;;;;;12.61;83.69;99743.92;4283442;82;21020;-83
2022/10/19 12:13:57;;;;;;;4.90;1.95;;;;;;;12.62;82.69;99741.37;4270476;82;21033;-83
2022/10/19 12:20:25;;;;;;;8.68;1.75;;;;;;;12.65;82.79;99734.37;4272237;82;21034;-83
2022/10/19 12:26:31;;;;;;;5.33;1.82;;;;;;;12.70;82.83;99721.66;4275099;82;21005;-83
2022/10/19 12:32:46;;;;;;;4.78;1.72;;;;;;;12.71;82.36;99715.02;4274844;82;21046;-83
2022/10/19 12:39:13;;;;;;;4.58;1.62;;;;;;;12.58;81.87;99720.52;4283230;82;21045;-83
2022/10/19 12:45:36;;;;;;;8.43;1.80;;;;;;;12.47;81.58;99720.38;4285035;82;21884;-83
2022/10/19 12:51:45;;;;;;;10.50;1.60;;;;;;;12.40;82.14;99726.34;4284588;82;21049;-83
2022/10/19 12:57:50;;;;;;;4.70;1.90;;;;;;;12.32;81.61;99731.50;4275573;82;21031;-83
2022/10/19 13:04:24;;;;;;;6.47;1.50;;;;;;;12.22;81.73;99726.63;4282076;82;21113;-83
2022/10/19 13:10:27;;;;;;;6.40;1.70;;;;;;;12.15;81.94;99725.16;4274574;82;21073;-83
2022/10/19 13:16:37;;;;;;;7.58;2.20;;;;;;;12.07;81.81;99734.43;4279873;82;21064;-83
2022/10/19 13:23:04;;;;;;;7.40;2.30;;;;;;;12.07;82.06;99735.80;4281402;82;21041;-83
2022/10/19 13:29:26;;;;;;;10.65;3.30;;;;;;;12.07;82.05;99735.80;4268683;81;20998;-82
2022/10/19 13:35:34;;;;;;;12.20;2.52;;;;;;;12.02;82.61;99729.23;4273635;82;21072;-82
2022/10/19 13:41:46;;;;;;;8.60;2.25;;;;;;;11.96;82.44;99743.86;4280151;82;21096;-81
2022/10/19 13:47:52;;;;;;;12.25;3.05;;;;;;;11.91;82.58;99735.13;4280273;82;21073;-82
2022/10/19 13:54:11;;;;;;;10.00;2.67;;;;;;;11.88;82.27;99742.15;4260983;82;21051;-82
2022/10/19 14:00:23;;;;;;;8.73;2.62;;;;;;;11.84;82.27;99738.53;4256899;82;21034;-82
2022/10/19 14:06:39;;;;;;;7.30;3.35;;;;;;;11.89;83.11;99730.00;4238903;82;21029;-82
2022/10/19 14:12:43;;;;;;;5.85;2.92;;;;;;;11.95;83.26;99736.00;4255022;82;21010;-82
2022/10/19 14:18:54;;;;;;;12.60;3.50;;;;;;;11.96;83.10;99743.05;4267871;82;21005;-83
2022/10/19 14:25:03;;;;;;;9.25;3.52;;;;;;;11.89;83.34;99728.63;4260147;82;21477;-82
2022/10/19 14:31:14;;;;;;;9.95;3.70;;;;;;;11.81;83.47;99726.92;4258383;82;21042;-84
2022/10/19 14:37:22;;;;;;;14.10;4.33;;;;;;;11.74;83.41;99728.18;4258771;82;21034;-83
2022/10/19 14:43:27;;;;;;;16.27;4.15;;;;;;;11.71;83.94;99721.25;4256073;82;21018;-83
2022/10/19 14:49:29;;;;;;;28.52;4.47;;;;;;;11.70;84.47;99727.31;4261151;82;21006;-82
2022/10/19 14:55:35;;;;;;;10.38;3.72;;;;;;;11.70;84.47;99727.91;4267774;82;21010;-82
2022/10/19 15:01:37;;;;;;;;;;;;;;;11.68;84.85;99727.47;4264059;82;21046;-83
2022/10/19 15:07:41;;;;;;;8.10;3.83;;;;;;;11.62;84.82;99724.19;4260455;82;20126;-83
2022/10/19 15:13:44;;;;;;;8.18;3.55;;;;;;;11.57;84.71;99731.94;4253132;82;21056;-83
2022/10/19 15:19:46;;;;;;;13.65;3.55;;;;;;;11.53;84.89;99735.17;4260328;82;21070;-83
2022/10/19 15:25:55;;;;;;;12.07;4.20;;;;;;;11.47;84.98;99735.25;4260038;82;21065;-83
2022/10/19 15:32:14;;;;;;;11.78;3.25;;;;;;;11.39;84.87;99740.38;4263625;82;21079;-83
2022/10/19 15:38:27;;;;;;;8.60;3.30;;;;;;;11.23;85.58;99751.42;4270257;82;21069;-83
2022/10/19 15:44:41;;;;;;;8.70;3.83;;;;;;;11.07;86.42;99752.09;4283808;82;21031;-84
2022/10/19 15:50:49;;;;;;;10.05;3.42;;;;;;;10.99;87.11;99753.86;4259152;82;21029;-83
2022/10/19 15:56:51;;;;;;;7.17;3.58;;;;;;;10.89;87.37;99756.38;4265974;82;21043;-83
2022/10/19 16:02:53;;;;;;;9.35;4.28;;;;;;;10.80;87.41;99764.81;4281004;82;21054;-83
2022/10/19 16:08:54;;;;;;;9.18;4.30;;;;;;;10.79;87.77;99769.28;4272997;82;21510;-83
2022/10/19 16:14:55;;;;;;;10.50;5.92;;;;;;;10.79;88.22;99772.03;4278619;82;21014;-84
2022/10/19 16:20:57;;;;;;;13.55;5.50;;;;;;;10.75;88.12;99771.94;4278564;82;21041;-83
2022/10/19 16:26:59;;;;;;;15.23;6.67;;;;;;;10.72;88.34;99781.44;4284417;82;21580;-83
2022/10/19 16:33:01;;;;;;;17.25;6.65;;;;;;;10.67;88.37;99799.50;4276609;82;21095;-84
2022/10/19 16:39:03;;;;;;;19.62;6.83;;;;;;;10.68;88.53;99813.43;4280098;82;21515;-83
2022/10/19 16:45:05;;;;;;;13.38;6.95;;;;;;;10.67;88.86;99807.16;4179802;83;21159;-83
2022/10/19 16:51:38;;;;;;;12.60;6.42;;;;;;;10.63;89.22;99802.16;4128531;85;21021;-83
2022/10/19 16:57:40;;;;;;;10.65;5.47;;;;;;;10.61;88.70;99804.47;4260982;82;21586;-83
2022/10/19 17:03:43;;;;;;;11.15;5.85;;;;;;;10.62;88.64;99806.61;4140923;82;9999752;-83
2022/10/19 17:09:49;;;;;;;8.65;5.25;;;;;;;10.63;88.78;99821.31;4267730;82;21007;-83
2022/10/19 17:15:51;;;;;;;13.32;7.55;;;;;;;10.64;88.95;99832.51;4256021;82;21013;-82
2022/10/19 17:21:57;;;;;;;8.48;4.60;;;;;;;10.62;88.69;99836.17;4260710;82;20964;-83
2022/10/19 17:27:59;;;;;;;9.83;4.97;;;;;;;10.59;88.60;99835.51;4259715;82;21096;-82
2022/10/19 17:34:01;;;;;;;9.35;3.47;;;;;;;10.59;88.81;99842.35;4266960;82;21545;-83
2022/10/19 17:40:06;;;;;;;8.70;4.40;;;;;;;10.55;88.73;99843.42;4247334;82;21054;-83
2022/10/19 17:46:12;;;;;;;11.90;4.25;;;;;;;10.55;89.01;99853.00;4260254;82;21038;-84
2022/10/19 17:52:13;;;;;;;8.35;4.53;;;;;;;10.54;89.25;99854.94;4264609;82;21655;-83
2022/10/19 17:58:14;;;;;;;10.10;5.20;;;;;;;10.49;89.71;99864.00;4274258;82;20994;-84
2022/10/19 18:04:16;;;;;;;11.12;5.80;;;;;;;10.38;90.10;99877.99;4281190;82;20939;-84
2022/10/19 18:10:17;;;;;;;14.07;7.35;;;;;;;10.26;90.48;99884.89;4283091;82;21514;-84
2022/10/19 18:16:25;;;;;;;18.87;6.97;;;;;;;10.03;90.35;99896.16;4283227;82;21492;-84
2022/10/19 18:22:27;;;;;;;10.35;5.25;;;;;;;9.91;92.64;99900.33;4273134;82;21971;-83
2022/10/19 18:28:34;;;;;;;7.30;4.67;;;;;;;9.91;93.43;99895.66;4273446;82;21382;-84
2022/10/19 18:34:35;;;;;;;8.48;4.75;;;;;;;9.98;94.28;99900.51;4270806;82;21826;-83
2022/10/19 18:40:37;;;;;;;10.10;6.83;;;;;;;9.98;94.28;99900.51;4281234;82;20997;-84
2022/10/19 18:46:39;;;;;;;12.58;6.45;;;;;;;9.98;94.30;99905.98;4272154;82;21013;-84
2022/10/19 18:52:40;;;;;;;13.10;7.72;;;;;;;9.91;94.44;99903.87;4264741;82;21003;-83
2022/10/19 18:58:42;;;;;;;13.62;8.08;;;;;;;9.92;94.79;99912.84;4251388;82;21164;-84
2022/10/19 19:04:44;;;;;;;15.32;9.45;;;;;;;9.92;95.34;99923.78;4139714;82;9999566;-84
2022/10/19 19:10:45;;;;;;;18.42;11.97;;;;;;;9.93;95.60;99926.17;4252101;82;21013;-83
2022/10/19 19:16:47;;;;;;;20.40;12.18;;;;;;;9.91;95.83;99928.48;4265742;82;20989;-84
2022/10/19 19:22:48;;;;;;;21.87;11.65;;;;;;;9.91;95.93;99930.41;4281235;82;21049;-83
2022/10/19 19:28:49;;;;;;;20.75;12.13;;;;;;;9.81;95.69;99939.09;4262183;82;20975;-84
2022/10/19 19:34:52;;;;;;;16.82;11.35;;;;;;;9.66;95.65;99947.48;4259514;82;21009;-84
2022/10/19 19:40:53;;;;;;;15.63;9.75;;;;;;;9.53;95.92;99945.34;4253703;82;20947;-83
2022/10/19 19:46:56;;;;;;;17.98;9.90;;;;;;;9.42;96.18;99943.41;4264088;83;20993;-83
2022/10/19 19:52:58;;;;;;;13.60;9.95;;;;;;;9.32;96.37;99939.77;4260427;82;21554;-83
2022/10/19 19:59:02;;;;;;;17.90;10.63;;;;;;;9.16;96.20;99953.92;4253578;82;21147;-84
2022/10/19 20:05:04;;;;;;;16.20;10.23;;;;;;;9.01;96.25;99963.59;4172746;85;21004;-84
2022/10/19 20:11:09;;;;;;;16.97;9.98;;;;;;;8.85;95.94;99968.69;4253718;82;21010;-84
2022/10/19 20:17:10;;;;;;;22.48;12.43;;;;;;;8.57;96.19;99967.73;4265505;82;21040;-84
2022/10/19 20:23:12;;;;;;;24.55;11.80;;;;;;;8.44;96.80;99975.09;4258650;82;21016;-84
2022/10/19 20:29:13;;;;;;;23.98;12.03;;;;;;;8.34;96.17;99976.89;4261712;82;22186;-84
2022/10/19 20:35:14;;;;;;;19.73;12.10;;;;;;;8.06;96.95;99982.67;4261014;82;20978;-84
2022/10/19 20:41:18;;;;;;;23.07;12.90;;;;;;;8.04;97.46;99984.92;4245394;82;20983;-84
2022/10/19 20:47:19;;;;;;;21.05;12.07;;;;;;;7.98;97.29;99987.63;4256262;82;21038;-84
2022/10/19 20:53:23;;;;;;;20.70;12.53;;;;;;;7.90;97.04;99987.13;4261091;82;21001;-84
2022/10/19 20:59:26;;;;;;;27.37;15.85;;;;;;;7.64;97.02;99991.40;4272909;82;21468;-84
2022/10/19 21:05:27;;;;;;;28.35;17.12;;;;;;;7.41;97.30;99987.39;4265260;82;21547;-83
2022/10/19 21:11:34;;;;;;;26.42;16.75;;;;;;;7.33;97.93;99990.19;4261610;82;21030;-84
2022/10/19 21:17:35;;;;;;;;;;;;;;;7.29;98.62;99998.21;4270752;82;21503;-84
2022/10/19 21:23:38;;;;;;;28.52;16.05;;;;;;;7.27;98.54;100007.81;4265196;82;20103;-83
2022/10/19 21:29:40;;;;;;;25.72;16.32;;;;;;;7.23;98.78;99998.72;4255248;82;21569;-84
2022/10/19 21:35:41;;;;;;;24.37;12.80;;;;;;;7.20;99.65;100006.19;4261601;82;21045;-84
2022/10/19 21:41:43;;;;;;;27.95;15.63;;;;;;;7.32;99.82;100005.72;4252280;82;21018;-83
2022/10/19 21:47:45;;;;;;;23.92;12.28;;;;;;;7.29;99.60;99999.57;4260512;82;21976;-84
2022/10/19 21:53:47;;;;;;;23.73;15.05;;;;;;;7.30;99.68;100000.35;4261028;82;21521;-84
2022/10/19 21:59:48;;;;;;;27.15;17.50;;;;;;;7.30;99.95;99999.80;4254162;82;21041;-84
2022/10/19 22:05:51;;;;;;;27.58;17.23;;;;;;;7.20;100.00;99996.10;4258355;82;21582;-84
2022/10/19 22:11:52;;;;;;;26.65;18.17;;;;;;;7.34;100.00;100000.75;4258884;82;21507;-83
2022/10/19 22:17:54;;;;;;;27.90;16.95;;;;;;;7.35;100.00;99998.80;4265383;82;22320;-83
2022/10/19 22:24:00;;;;;;;24.45;14.93;;;;;;;7.31;100.00;100004.69;4253920;82;21003;-85
2022/10/19 22:30:01;;;;;;;34.70;18.15;;;;;;;7.29;100.00;100009.10;4261743;82;21837;-84
2022/10/19 22:36:07;;;;;;;25.92;17.15;;;;;;;7.22;100.00;100006.08;4256768;82;20998;-84
2022/10/19 22:42:08;;;;;;;35.83;18.52;;;;;;;7.13;100.00;100009.42;4263167;82;21017;-85
2022/10/19 22:48:09;;;;;;;22.15;13.72;;;;;;;7.10;100.00;100012.80;4262442;82;21562;-84
2022/10/19 22:54:11;;;;;;;27.80;17.50;;;;;;;7.03;100.00;100008.41;4259430;82;22258;-84
2022/10/19 23:00:13;;;;;;;27.22;17.77;;;;;;;6.94;100.00;100006.87;4261676;82;21071;-85
2022/10/19 23:06:15;;;;;;;29.85;17.57;;;;;;;6.88;100.00;100010.33;4262411;82;21506;-84
2022/10/19 23:12:16;;;;;;;23.80;14.38;;;;;;;6.71;100.00;100012.30;4285750;82;21030;-84
2022/10/19 23:18:18;;;;;;;27.05;16.60;;;;;;;6.65;100.00;100014.95;4254641;82;20982;-84
2022/10/19 23:24:19;;;;;;;29.45;17.70;;;;;;;6.58;100.00;100019.53;4264223;82;21045;-84
2022/10/19 23:30:21;;;;;;;28.27;18.55;;;;;;;6.62;100.00;100024.58;4260222;82;20983;-84
2022/10/19 23:36:26;;;;;;;29.27;17.85;;;;;;;6.55;100.00;100033.78;4268960;83;20986;-84
2022/10/19 23:42:28;;;;;;;27.82;15.25;;;;;;;6.61;100.00;100039.87;4258730;82;21022;-84
2022/10/19 23:48:29;;;;;;;24.18;15.32;;;;;;;6.57;100.00;100044.34;4263203;82;21896;-84
2022/10/19 23:54:31;;;;;;;33.10;18.00;;;;;;;6.56;100.00;100050.36;4259526;82;21093;-84
